Time;durP1;ratioP1;P1;durP2;ratioP2;P2;SDS_P1;SDS_P2;PMS_P1;PMS_P2;Temp;Humidity;BMP_temperature;BMP_pressure;BME280_temperature;BME280_humidity;BME280_pressure;Samples;Min_cycle;Max_cycle;Signal;HPM_P1;HPM_P2
2023/05/29 00:01:55;;;;;;;26.25;12.52;;;7.30;99.90;;;6.07;89.20;101683.28;5012919;28;20037;-76
2023/05/29 00:04:21;;;;;;;16.88;8.20;;;7.30;99.90;;;6.14;89.93;101684.97;5020482;28;20104;-76
2023/05/29 00:06:47;;;;;;;22.83;11.82;;;7.40;99.90;;;6.21;91.14;101685.75;5017850;28;20028;-76
2023/05/29 00:09:13;;;;;;;15.43;7.40;;;7.40;99.90;;;6.20;91.85;101692.72;5020493;28;20030;-76
2023/05/29 00:11:40;;;;;;;18.88;9.23;;;7.40;99.90;;;6.21;91.21;101689.22;5002051;28;20087;-76
2023/05/29 00:14:05;;;;;;;19.73;8.52;;;7.50;99.90;;;6.23;91.24;101691.81;5022241;28;20125;-76
2023/05/29 00:16:31;;;;;;;14.77;7.85;;;7.50;99.90;;;6.19;90.85;101690.13;5006553;28;20053;-76
2023/05/29 00:18:57;;;;;;;12.65;6.07;;;7.40;99.90;;;6.14;90.39;101692.81;5020050;28;20437;-76
2023/05/29 00:21:23;;;;;;;15.20;6.60;;;7.40;99.90;;;6.07;89.34;101692.00;5003075;28;20064;-76
2023/05/29 00:23:49;;;;;;;7.90;5.13;;;7.30;99.90;;;6.00;88.74;101689.47;5018587;28;20397;-76
2023/05/29 00:26:16;;;;;;;15.93;7.63;;;7.20;99.90;;;5.94;87.71;101690.41;5012317;28;20090;-76
2023/05/29 00:28:42;;;;;;;8.90;5.93;;;7.20;99.90;;;5.88;87.61;101685.25;4999513;28;20657;-76
2023/05/29 00:31:08;;;;;;;19.17;8.52;;;7.20;99.90;;;5.81;87.30;101681.84;5002773;28;20030;-76
2023/05/29 00:33:34;;;;;;;3.17;2.55;;;7.00;99.90;;;5.70;86.87;101681.97;5018714;28;20055;-76
2023/05/29 00:36:00;;;;;;;20.65;8.35;;;7.00;99.90;;;5.63;86.73;101674.19;5002909;28;20432;-76
2023/05/29 00:38:25;;;;;;;15.48;6.90;;;6.90;99.90;;;5.58;86.85;101679.47;5022171;28;20040;-76
2023/05/29 00:40:51;;;;;;;7.05;4.00;;;6.90;99.90;;;5.54;86.62;101686.47;5011642;28;20120;-76
2023/05/29 00:43:17;;;;;;;8.90;5.20;;;6.80;99.90;;;5.52;86.42;101683.00;5019441;28;20025;-76
2023/05/29 00:45:43;;;;;;;8.40;5.30;;;6.80;99.90;;;5.52;86.46;101684.75;5017896;28;20033;-76
2023/05/29 00:48:09;;;;;;;8.38;4.63;;;6.80;99.90;;;5.50;86.16;101692.59;4990708;28;20026;-77
2023/05/29 00:50:35;;;;;;;11.13;6.00;;;6.70;99.90;;;5.51;85.99;101696.09;5021302;28;20040;-76
2023/05/29 00:53:02;;;;;;;9.35;6.00;;;6.70;99.90;;;5.49;86.05;101693.50;5000894;28;20053;-76
2023/05/29 00:55:29;;;;;;;14.45;6.13;;;6.70;99.90;;;5.39;85.91;101707.53;4999499;28;20489;-76
2023/05/29 00:57:55;;;;;;;15.93;5.78;;;6.60;99.90;;;5.31;85.22;101693.66;5009679;28;20502;-76
2023/05/29 01:00:21;;;;;;;20.15;7.57;;;6.60;99.90;;;5.26;85.38;101700.69;4991023;28;20068;-76
2023/05/29 01:02:48;;;;;;;16.30;7.47;;;6.60;99.90;;;5.23;85.56;101698.13;5019800;28;20510;-76
2023/05/29 01:05:19;;;;;;;16.67;9.02;;;6.50;99.90;;;5.22;86.21;101692.00;5019894;28;20061;-76
2023/05/29 01:07:45;;;;;;;18.40;9.38;;;6.50;99.90;;;5.23;86.81;101698.97;4982789;28;20053;-77
2023/05/29 01:10:11;;;;;;;16.33;8.43;;;6.50;99.90;;;5.26;87.21;101700.69;5009887;28;20044;-76
2023/05/29 01:13:14;;;;;;;10.30;6.55;;;6.50;99.90;;;5.22;87.49;101704.19;5020653;28;20045;-76
2023/05/29 01:16:00;;;;;;;14.02;7.00;;;6.40;99.90;;;5.10;86.80;101694.75;5029066;28;20533;-76
2023/05/29 01:19:00;;;;;;;225.73;14.43;;;6.30;99.90;;;5.01;86.39;101702.63;4991935;28;20145;-76
2023/05/29 01:22:24;;;;;;;227.48;15.93;;;6.30;99.90;;;4.89;86.93;101703.59;4997142;28;20120;-76
2023/05/29 01:25:16;;;;;;;25.88;14.57;;;6.20;99.90;;;4.85;87.08;101701.88;5000372;28;20034;-76
2023/05/29 01:27:44;;;;;;;34.67;16.98;;;6.10;99.90;;;4.84;88.29;101697.56;5009887;28;20498;-76
2023/05/29 01:30:12;;;;;;;51.13;14.00;;;6.10;99.90;;;4.79;89.25;101701.94;5004826;28;20453;-76
2023/05/29 01:32:39;;;;;;;226.35;20.33;;;6.10;99.90;;;4.72;89.34;101704.56;5017749;28;20521;-76
2023/05/29 01:35:06;;;;;;;584.33;21.10;;;6.00;99.90;;;4.68;89.98;101709.81;5021303;28;20037;-76
2023/05/29 01:37:32;;;;;;;688.63;28.58;;;6.00;99.90;;;4.69;91.35;101712.44;5003694;28;20034;-76
2023/05/29 01:39:58;;;;;;;16.00;10.88;;;6.00;99.90;;;4.72;92.03;101717.63;5018788;28;20095;-76
2023/05/29 01:42:24;;;;;;;20.55;11.52;;;6.10;99.90;;;4.76;92.36;101713.25;5006400;28;20034;-76
2023/05/29 01:44:50;;;;;;;15.60;10.20;;;6.10;99.90;;;4.81;92.72;101714.06;5010130;28;20460;-76
2023/05/29 01:47:16;;;;;;;23.08;10.57;;;6.10;99.90;;;4.84;92.62;101718.44;5027639;28;20071;-76
2023/05/29 01:49:43;;;;;;;15.65;10.23;;;6.10;99.90;;;4.88;93.01;101717.50;5019174;28;20041;-76
2023/05/29 01:52:11;;;;;;;16.35;9.45;;;6.20;99.90;;;4.93;93.41;101713.13;5002247;28;20506;-76
2023/05/29 01:54:37;;;;;;;14.93;9.27;;;6.20;99.90;;;5.04;93.43;101715.66;5002044;28;20060;-76
2023/05/29 01:57:05;;;;;;;25.13;11.93;;;6.30;99.90;;;5.11;93.70;101718.19;5017036;28;20498;-76
2023/05/29 01:59:33;;;;;;;21.98;11.60;;;6.40;99.90;;;5.21;93.98;101715.53;5016583;28;20029;-76
2023/05/29 02:02:08;;;;;;;75.32;16.42;;;6.40;99.90;;;5.21;94.63;101723.38;5019512;28;20908;-77
2023/05/29 02:04:34;;;;;;;27.38;12.80;;;6.40;99.90;;;5.16;94.83;101719.91;5000365;28;20481;-76
2023/05/29 02:07:09;;;;;;;30.58;13.70;;;6.40;99.90;;;5.16;94.83;101712.06;4983429;28;22583;-76
2023/05/29 02:09:36;;;;;;;18.98;11.02;;;6.40;99.90;;;5.16;94.36;101717.31;5006228;28;20025;-77
2023/05/29 02:12:01;;;;;;;21.85;11.65;;;6.50;99.90;;;5.20;94.29;101719.88;5020783;28;20041;-76
2023/05/29 02:14:27;;;;;;;32.03;14.77;;;6.50;99.90;;;5.26;94.49;101714.59;5010696;28;20022;-76
2023/05/29 02:16:57;;;;;;;20.63;12.18;;;6.50;99.90;;;5.33;94.64;101718.91;5010938;28;20688;-76
2023/05/29 02:19:25;;;;;;;28.65;12.57;;;6.60;99.90;;;5.43;94.98;101718.81;5009032;28;20041;-76
2023/05/29 02:21:51;;;;;;;22.90;11.90;;;6.70;99.90;;;5.50;95.57;101721.34;5020376;28;20121;-76
2023/05/29 02:24:17;;;;;;;27.80;14.85;;;6.70;99.90;;;5.59;95.70;101729.97;5004544;28;20021;-76
2023/05/29 02:26:42;;;;;;;29.23;14.98;;;6.80;99.90;;;5.67;96.24;101722.94;5031369;28;20029;-76
2023/05/29 02:29:11;;;;;;;32.45;14.05;;;6.90;99.90;;;5.75;96.28;101728.94;5021444;28;20112;-76
2023/05/29 02:31:37;;;;;;;38.50;17.10;;;7.00;99.90;;;5.83;96.27;101721.00;5009277;28;20042;-76
2023/05/29 02:34:02;;;;;;;32.80;16.63;;;7.00;99.90;;;5.91;96.78;101727.03;5009120;28;20042;-76
2023/05/29 02:36:28;;;;;;;26.63;14.45;;;7.10;99.90;;;5.97;97.72;101733.97;5011123;28;20124;-76
2023/05/29 02:38:54;;;;;;;30.92;15.27;;;7.80;99.90;;;6.03;97.75;101726.06;4983617;28;20049;-77
2023/05/29 02:41:20;;;;;;;38.00;17.17;;;7.20;99.90;;;6.07;97.85;101726.00;5008606;28;20120;-76
2023/05/29 02:43:46;;;;;;;36.55;16.55;;;7.30;99.90;;;6.06;98.64;101724.25;5015288;28;20159;-76
2023/05/29 02:46:12;;;;;;;37.25;16.73;;;7.30;99.90;;;6.09;99.67;101716.41;5011718;28;20072;-77
2023/05/29 02:48:38;;;;;;;36.15;17.95;;;7.30;99.90;;;6.10;100.00;101718.09;5000809;28;20115;-77
2023/05/29 02:51:04;;;;;;;40.72;19.10;;;7.30;99.90;;;6.13;100.00;101719.81;4993232;28;20042;-76
2023/05/29 02:53:30;;;;;;;41.47;19.38;;;7.40;99.90;;;6.18;100.00;101728.50;5015194;28;20053;-76
2023/05/29 02:55:56;;;;;;;38.40;18.65;;;7.50;99.90;;;6.28;100.00;101737.06;5005489;28;20045;-76
2023/05/29 02:58:22;;;;;;;49.33;19.73;;;7.50;99.90;;;6.34;100.00;101737.00;4986823;28;20133;-76
2023/05/29 03:00:47;;;;;;;43.53;19.80;;;7.60;99.90;;;6.32;100.00;101738.78;5001590;28;20029;-76
2023/05/29 03:03:13;;;;;;;55.85;20.13;;;7.60;99.90;;;6.34;100.00;101732.63;5022618;28;20029;-76
2023/05/29 03:05:39;;;;;;;49.63;21.15;;;7.60;99.90;;;6.42;100.00;101740.38;5019490;28;20033;-77
2023/05/29 03:08:05;;;;;;;67.10;23.73;;;7.70;99.90;;;6.48;100.00;101742.94;5019675;28;20128;-76
2023/05/29 03:10:31;;;;;;;61.00;23.67;;;7.70;99.90;;;6.58;100.00;101747.13;5008225;28;20044;-76
2023/05/29 03:12:57;;;;;;;65.40;25.08;;;7.80;99.90;;;6.69;100.00;101738.28;5002425;28;20048;-76
2023/05/29 03:15:22;;;;;;;76.32;24.90;;;7.90;99.90;;;6.81;100.00;101743.34;4994219;28;20233;-76
2023/05/29 03:17:48;;;;;;;69.38;25.92;;;8.00;99.90;;;6.98;100.00;101745.72;5001990;28;20506;-76
2023/05/29 03:20:15;;;;;;;62.05;23.73;;;8.20;99.90;;;7.19;100.00;101745.38;5013183;28;20739;-76
2023/05/29 03:22:41;;;;;;;63.95;24.23;;;8.40;99.90;;;7.40;100.00;101753.75;5020869;28;20132;-76
2023/05/29 03:25:07;;;;;;;65.13;26.10;;;8.50;99.90;;;7.59;100.00;101755.16;5022153;28;20025;-76
2023/05/29 03:27:33;;;;;;;67.22;24.77;;;8.70;99.90;;;7.78;100.00;101757.47;5023257;28;20041;-76
2023/05/29 03:30:02;;;;;;;63.13;24.60;;;8.90;99.90;;;7.97;100.00;101750.97;4996481;28;20041;-76
2023/05/29 03:32:28;;;;;;;54.58;22.90;;;9.00;99.90;;;8.15;100.00;101757.59;5011769;28;20592;-76
2023/05/29 03:34:55;;;;;;;45.72;20.50;;;9.20;99.90;;;8.28;100.00;101755.59;5022211;28;20109;-76
2023/05/29 03:37:20;;;;;;;53.47;21.73;;;9.30;99.90;;;8.46;100.00;101753.50;5010971;28;20025;-77
2023/05/29 03:39:46;;;;;;;56.30;22.88;;;9.50;99.90;;;8.65;100.00;101760.09;5010621;28;20394;-76
2023/05/29 03:42:13;;;;;;;52.03;21.83;;;10.10;99.90;;;9.23;100.00;101766.63;5019507;28;20047;-76
2023/05/29 03:44:42;;;;;;;44.63;20.80;;;10.70;99.90;;;9.87;100.00;101765.88;5011461;28;20029;-76
2023/05/29 03:47:08;;;;;;;39.85;18.98;;;11.20;99.90;;;10.48;97.06;101765.94;5013651;28;20504;-76
2023/05/29 03:49:34;;;;;;;36.85;17.50;;;11.50;99.90;;;10.85;93.34;101768.31;5002929;28;20461;-77
2023/05/29 03:52:00;;;;;;;41.22;17.85;;;11.30;99.90;;;11.17;89.76;101763.81;5012050;28;20038;-77
2023/05/29 03:54:26;;;;;;;40.20;16.88;;;12.20;99.90;;;11.45;86.97;101771.66;5010968;28;20029;-77
2023/05/29 03:56:52;;;;;;;38.63;15.45;;;12.40;99.90;;;11.68;84.14;101768.25;4996378;23;20590;-77
2023/05/29 03:59:20;;;;;;;32.45;15.02;;;12.60;99.90;;;11.83;82.25;101771.25;4996798;28;20117;-77
2023/05/29 04:01:46;;;;;;;30.48;14.50;;;12.70;99.90;;;11.96;81.48;101769.91;4985105;28;20553;-77
2023/05/29 04:04:11;;;;;;;27.98;12.52;;;12.80;99.90;;;12.10;79.72;101772.09;4992314;28;20030;-77
2023/05/29 04:06:40;;;;;;;24.60;12.88;;;12.80;99.90;;;12.08;79.36;101769.50;4978916;28;20034;-77
2023/05/29 04:09:06;;;;;;;30.13;13.27;;;12.80;99.90;;;12.06;79.50;101771.31;4974433;28;20530;-77
2023/05/29 04:11:34;;;;;;;31.33;13.57;;;12.90;99.90;;;12.24;78.93;101774.19;4973611;28;20042;-77
2023/05/29 04:14:01;;;;;;;28.58;13.32;;;13.10;99.90;;;12.56;78.66;101772.16;4961999;28;20097;-77
2023/05/29 04:16:31;;;;;;;26.70;12.60;;;13.40;99.90;;;13.05;77.55;101778.16;4963637;28;20188;-77
2023/05/29 04:18:56;;;;;;;28.70;12.20;;;14.00;99.90;;;13.89;75.14;101794.97;4964467;28;20041;-78
2023/05/29 04:21:22;;;;;;;21.65;12.02;;;14.70;99.90;;;14.66;72.70;101807.44;4970074;28;20034;-77
2023/05/29 04:23:48;;;;;;;25.38;11.68;;;15.40;99.90;;;15.42;69.80;101802.91;4976942;28;20038;-77
2023/05/29 04:26:14;;;;;;;;;;;15.50;99.90;;;15.83;67.64;101815.03;4984433;28;20398;-77
2023/05/29 04:28:40;;;;;;;20.58;11.27;;;16.40;99.90;;;16.38;66.23;101814.78;4971266;28;19914;-77
2023/05/29 04:31:05;;;;;;;;;;;16.40;99.90;;;17.31;64.01;101823.88;4952447;28;20038;-77
2023/05/29 04:33:32;;;;;;;19.35;9.80;;;18.00;99.90;;;19.03;60.46;101837.44;4988036;28;19984;-77
2023/05/29 04:36:03;;;;;;;21.67;10.05;;;19.00;99.90;;;20.38;56.84;101852.38;4974263;28;20042;-77
2023/05/29 04:38:30;;;;;;;18.17;9.65;;;20.30;99.90;;;22.03;53.83;101857.28;4966015;28;20065;-77
2023/05/29 04:40:58;;;;;;;18.85;9.30;;;21.60;99.90;;;23.64;50.87;101869.50;4973963;28;20065;-77
2023/05/29 04:43:26;;;;;;;17.20;8.40;;;22.80;99.90;;;24.99;48.22;101873.97;4962378;28;20041;-77
2023/05/29 04:45:58;;;;;;;23.15;8.45;;;23.80;99.00;;;26.17;45.69;101879.25;4976363;28;20150;-77
2023/05/29 04:48:24;;;;;;;21.60;8.30;;;24.60;96.10;;;26.30;44.57;101886.19;4975945;28;20034;-77
2023/05/29 04:50:50;;;;;;;16.33;7.68;;;25.30;96.40;;;27.32;43.26;101888.03;4970945;28;20038;-77
2023/05/29 04:53:16;;;;;;;18.40;7.68;;;25.90;95.30;;;28.10;42.09;101915.31;4969101;28;20457;-77
2023/05/29 04:55:42;;;;;;;;;;;25.90;95.50;;;28.66;40.63;101921.28;4974690;28;20051;-77
2023/05/29 04:58:08;;;;;;;15.48;6.50;;;27.00;93.20;;;29.33;39.64;101912.38;4964211;28;19925;-77
2023/05/29 05:00:33;;;;;;;20.38;5.63;;;27.30;92.00;;;29.49;38.98;101931.41;4967546;28;20043;-77
2023/05/29 05:02:59;;;;;;;;;;;27.30;93.00;;;29.89;38.26;101942.50;4979725;28;20039;-75
2023/05/29 05:05:25;;;;;;;19.55;5.50;;;27.90;92.00;;;30.17;38.12;101943.88;4977758;28;20639;-75
2023/05/29 05:07:54;;;;;;;17.67;5.07;;;28.10;90.70;;;30.32;37.52;101949.44;4964123;28;20053;-75
2023/05/29 05:10:20;;;;;;;15.50;5.00;;;28.40;90.10;;;30.74;36.71;101951.06;4971553;28;20058;-75
2023/05/29 05:12:46;;;;;;;15.40;4.55;;;28.60;90.00;;;30.79;36.48;101956.81;4963522;28;20557;-75
2023/05/29 05:15:12;;;;;;;18.27;4.95;;;28.60;88.00;;;30.26;36.71;101952.84;4971661;28;20037;-75
2023/05/29 05:17:38;;;;;;;15.40;4.78;;;28.30;88.10;;;29.96;37.40;101947.09;4972861;28;20050;-75
2023/05/29 05:20:05;;;;;;;13.77;4.63;;;28.10;88.40;;;29.41;37.91;101947.66;4948849;28;20709;-75
2023/05/29 05:22:31;;;;;;;16.95;4.72;;;27.40;88.20;;;27.92;39.85;101939.69;4948921;28;20554;-76
2023/05/29 05:24:59;;;;;;;19.20;4.80;;;27.30;89.70;;;28.60;38.67;101951.72;4973373;28;20047;-75
2023/05/29 05:27:25;;;;;;;16.08;4.10;;;27.20;90.20;;;29.10;38.07;101967.25;4979735;28;20033;-75
2023/05/29 05:29:50;;;;;;;13.57;3.95;;;27.50;89.90;;;30.29;36.34;101985.13;4960719;28;20038;-75
2023/05/29 05:32:16;;;;;;;;;;;27.60;90.70;;;31.09;35.23;102005.19;4956593;28;20117;-75
2023/05/29 05:34:42;;;;;;;17.75;3.90;;;28.40;86.10;;;31.23;34.55;102013.47;4975657;28;19921;-76
2023/05/29 05:37:08;;;;;;;;;;;28.50;89.20;;;32.48;32.19;102028.81;4953461;28;20772;-76
2023/05/29 05:39:34;;;;;;;17.40;4.27;;;29.70;84.80;;;32.81;32.98;102025.75;4954541;28;19910;-75
2023/05/29 05:42:02;;;;;;;19.23;4.50;;;30.00;84.00;;;33.19;32.15;102034.72;4969816;28;20096;-76
2023/05/29 05:44:28;;;;;;;13.85;3.63;;;30.40;82.80;;;33.38;32.13;102037.91;4960404;28;20674;-76
2023/05/29 05:46:54;;;;;;;18.35;3.90;;;30.60;81.20;;;33.57;31.75;102042.75;4958549;28;20073;-75
2023/05/29 05:49:20;;;;;;;17.27;4.32;;;30.70;81.30;;;33.16;32.27;102032.38;4986538;28;20042;-76
2023/05/29 05:51:46;;;;;;;21.15;4.38;;;30.70;79.90;;;32.60;33.02;102035.53;4959418;28;20398;-75
2023/05/29 05:54:15;;;;;;;14.65;3.95;;;30.60;79.90;;;32.07;33.20;102023.72;4981398;28;20100;-76
2023/05/29 05:56:41;;;;;;;21.40;3.53;;;30.50;77.60;;;31.82;32.72;102032.03;4949743;28;20039;-75
2023/05/29 05:59:06;;;;;;;11.93;3.28;;;30.60;78.30;;;32.37;32.68;102034.69;4959579;28;20057;-75
2023/05/29 06:01:33;;;;;;;16.23;3.13;;;30.90;77.20;;;32.61;31.65;102044.56;4961649;28;20105;-76
2023/05/29 06:03:58;;;;;;;15.48;3.17;;;30.90;76.80;;;32.69;31.52;102044.47;4970605;28;20038;-75
2023/05/29 06:06:24;;;;;;;16.25;3.75;;;31.40;76.10;;;33.30;30.46;102067.00;4974776;28;20110;-76
2023/05/29 06:08:50;;;;;;;16.02;3.88;;;31.50;75.10;;;33.35;30.68;102065.56;5000590;28;20037;-76
2023/05/29 06:11:17;;;;;;;15.48;4.00;;;32.00;75.30;;;34.20;29.68;102072.28;4973273;28;20034;-75
2023/05/29 06:13:43;;;;;;;15.05;3.28;;;31.90;73.70;;;33.25;30.94;102052.22;4963727;28;20030;-75
2023/05/29 06:16:08;;;;;;;12.45;3.50;;;31.50;73.20;;;31.25;32.32;102029.59;4969975;28;20045;-75
2023/05/29 06:18:35;;;;;;;17.23;3.53;;;30.60;74.40;;;30.08;34.18;102014.63;4961089;28;20034;-75
2023/05/29 06:21:01;;;;;;;14.68;3.97;;;30.00;76.50;;;29.86;34.30;102011.56;4973226;28;20061;-75
2023/05/29 06:23:27;;;;;;;17.23;3.70;;;29.20;77.30;;;28.11;36.53;101986.56;4966021;28;20181;-75
2023/05/29 06:25:53;;;;;;;16.92;3.97;;;28.70;79.70;;;28.90;35.92;101999.16;4974040;28;20073;-75
2023/05/29 06:28:18;;;;;;;14.20;3.45;;;28.00;79.60;;;27.18;37.40;101963.22;4974668;28;20129;-74
2023/05/29 06:30:44;;;;;;;17.80;3.33;;;28.10;82.10;;;29.15;36.04;101983.88;4970526;28;20056;-74
2023/05/29 06:33:10;;;;;;;17.27;3.85;;;28.20;79.90;;;29.34;34.96;101995.47;4989723;28;20142;-75
2023/05/29 06:35:36;;;;;;;13.75;3.47;;;28.70;77.80;;;29.71;33.97;101994.22;4971316;28;20027;-75
2023/05/29 06:38:02;;;;;;;19.70;4.00;;;29.20;75.20;;;30.37;32.56;102017.72;4966031;28;20055;-75
2023/05/29 06:40:28;;;;;;;17.40;3.78;;;29.50;77.00;;;30.23;33.15;102018.38;4996426;28;20050;-75
2023/05/29 06:42:54;;;;;;;15.52;3.70;;;30.10;74.30;;;30.71;31.97;102032.09;4971541;28;20084;-75
2023/05/29 06:45:19;;;;;;;14.88;3.40;;;29.50;73.80;;;29.31;34.40;102009.34;4974317;28;20124;-75
2023/05/29 06:47:45;;;;;;;16.00;3.15;;;30.00;74.50;;;30.47;32.86;102025.69;4978033;28;20030;-75
2023/05/29 06:50:11;;;;;;;17.98;3.47;;;30.30;73.40;;;31.02;31.80;102038.53;4968395;28;20121;-75
2023/05/29 06:52:37;;;;;;;16.75;3.58;;;30.50;72.60;;;30.90;31.71;102041.78;4971097;28;20487;-75
2023/05/29 06:55:06;;;;;;;13.20;3.25;;;30.60;70.80;;;30.65;31.46;102039.94;5004024;28;20061;-75
2023/05/29 06:57:32;;;;;;;25.90;3.47;;;30.50;72.40;;;30.67;31.86;102039.78;4973563;28;20042;-75
2023/05/29 06:59:58;;;;;;;15.80;3.53;;;30.00;71.00;;;29.61;32.14;102035.91;4975997;28;20092;-75
2023/05/29 07:02:24;;;;;;;20.42;3.30;;;29.80;73.60;;;29.49;33.27;102031.81;4978239;28;20087;-74
2023/05/29 07:04:50;;;;;;;16.20;3.45;;;30.20;72.30;;;30.43;32.34;102041.50;4977230;28;20385;-75
2023/05/29 07:07:16;;;;;;;15.38;3.35;;;30.60;72.30;;;30.23;31.62;102045.53;4986334;28;20120;-75
2023/05/29 07:09:42;;;;;;;16.88;3.83;;;30.10;72.90;;;29.95;33.06;102029.56;5006740;28;20034;-74
2023/05/29 07:12:08;;;;;;;19.33;4.05;;;30.10;73.20;;;29.99;33.11;102036.34;4980261;28;20130;-75
2023/05/29 07:14:33;;;;;;;19.85;4.25;;;29.70;73.20;;;29.07;33.95;102019.03;4982571;28;20120;-75
2023/05/29 07:17:00;;;;;;;19.48;3.50;;;28.60;74.80;;;26.32;37.36;101984.94;4975217;28;20047;-74
2023/05/29 07:19:25;;;;;;;17.88;3.38;;;27.50;76.60;;;25.03;39.57;101966.13;4973013;28;20452;-74
2023/05/29 07:21:51;;;;;;;13.90;3.05;;;26.40;78.60;;;24.45;40.61;101961.28;4959202;28;20125;-74
2023/05/29 07:24:17;;;;;;;20.48;3.70;;;25.70;82.80;;;25.07;40.92;101963.03;4970323;28;20634;-75
2023/05/29 07:26:43;;;;;;;19.08;3.90;;;25.60;81.60;;;24.88;40.08;101961.13;4952930;28;20026;-75
2023/05/29 07:29:11;;;;;;;14.05;3.35;;;25.50;82.10;;;25.23;40.07;101959.03;4988196;28;20034;-75
2023/05/29 07:31:40;;;;;;;15.50;3.40;;;25.70;84.30;;;25.47;40.01;101966.75;4975204;28;20038;-75
2023/05/29 07:34:06;;;;;;;16.42;3.80;;;24.50;82.80;;;22.41;44.22;101923.22;4984464;28;20445;-75
2023/05/29 07:36:32;;;;;;;20.10;3.78;;;23.70;86.70;;;21.72;46.05;101915.06;5000817;28;20030;-75
2023/05/29 07:39:01;;;;;;;20.33;3.65;;;23.50;87.90;;;23.30;43.76;101939.47;4947464;28;20062;-75
2023/05/29 07:41:26;;;;;;;13.73;3.00;;;24.30;87.40;;;25.12;40.49;101976.97;4974941;28;20027;-74
2023/05/29 07:43:52;;;;;;;19.27;3.67;;;25.70;85.60;;;27.05;38.21;101992.47;4954813;28;20041;-74
2023/05/29 07:46:19;;;;;;;;;;;25.90;86.00;;;25.39;39.57;101962.03;4956270;28;20065;-75
2023/05/29 07:48:46;;;;;;;15.85;3.33;;;25.60;82.80;;;23.98;41.89;101947.38;4976361;28;20015;-75
2023/05/29 07:51:13;;;;;;;20.05;4.28;;;24.50;84.40;;;22.43;44.03;101926.63;4973870;28;20190;-75
2023/05/29 07:53:38;;;;;;;14.75;3.15;;;23.60;85.50;;;22.43;44.63;101926.63;4972073;28;20419;-75
2023/05/29 07:56:05;;;;;;;18.90;3.70;;;23.70;86.70;;;23.91;42.23;101955.94;4970122;28;20041;-75
2023/05/29 07:58:31;;;;;;;19.58;4.03;;;24.50;87.40;;;25.26;40.56;101977.59;4966070;28;20123;-74
2023/05/29 08:00:57;;;;;;;11.98;3.00;;;24.80;85.90;;;23.99;42.16;101949.91;4970660;28;20412;-74
2023/05/29 08:03:23;;;;;;;15.93;3.60;;;24.10;84.50;;;22.50;43.86;101927.88;4973179;28;20046;-75
2023/05/29 08:05:49;;;;;;;16.13;3.30;;;23.20;86.70;;;21.30;45.86;101910.06;4975399;28;20117;-75
2023/05/29 08:08:15;;;;;;;21.63;3.95;;;22.40;89.10;;;20.96;46.97;101902.78;4955337;28;20233;-74
2023/05/29 08:10:41;;;;;;;18.63;3.92;;;22.40;90.60;;;22.57;44.68;101936.31;4968067;28;20069;-75
2023/05/29 08:13:07;;;;;;;17.50;3.72;;;22.90;89.30;;;22.93;43.30;101937.88;4983653;28;20047;-75
2023/05/29 08:15:34;;;;;;;21.55;3.65;;;22.60;89.90;;;21.59;46.01;101915.13;4976045;28;20034;-75
2023/05/29 08:18:00;;;;;;;22.27;3.60;;;22.20;89.70;;;21.25;46.49;101908.69;4974973;28;20038;-75
2023/05/29 08:20:32;;;;;;;18.38;3.20;;;21.90;90.00;;;20.76;46.79;101914.91;4948471;28;20047;-75
2023/05/29 08:22:58;;;;;;;19.15;3.72;;;21.60;90.60;;;20.85;47.28;101922.28;4966953;28;20058;-74
2023/05/29 08:25:24;;;;;;;18.75;3.40;;;21.80;91.50;;;22.07;46.05;101936.53;5009259;28;20049;-74
2023/05/29 08:27:50;;;;;;;15.93;3.70;;;22.30;89.20;;;22.88;43.20;101950.00;4976474;28;20046;-75
2023/05/29 08:30:16;;;;;;;15.73;3.15;;;23.00;87.80;;;23.55;42.80;101957.13;4974054;28;20058;-78
2023/05/29 08:32:46;;;;;;;20.48;4.05;;;23.40;88.90;;;23.19;43.20;101951.09;4957116;28;20034;-75
2023/05/29 08:35:16;;;;;;;25.77;3.90;;;23.20;87.00;;;22.33;44.18;101936.38;4966639;28;20093;-75
2023/05/29 08:37:45;;;;;;;12.90;3.03;;;22.50;85.60;;;21.00;45.05;101923.88;4968803;28;20467;-75
2023/05/29 08:40:17;;;;;;;14.23;3.25;;;21.70;87.00;;;20.23;46.16;101917.66;4974348;28;20038;-76
2023/05/29 08:43:16;;;;;;;17.27;3.67;;;21.10;89.70;;;19.63;47.91;101905.59;4950479;28;20106;-75
2023/05/29 08:45:54;;;;;;;22.40;3.58;;;20.60;91.30;;;19.54;49.35;101906.22;4975520;28;20041;-76
2023/05/29 08:48:25;;;;;;;14.23;3.28;;;20.60;92.20;;;20.05;48.68;101909.06;4976078;28;20018;-76
2023/05/29 08:50:54;;;;;;;19.67;3.72;;;20.80;92.00;;;20.66;48.09;101918.22;4949604;28;20033;-76
2023/05/29 08:53:27;;;;;;;15.88;3.58;;;21.20;92.00;;;20.97;47.23;101918.75;4972984;28;20462;-76
2023/05/29 08:55:55;;;;;;;16.65;3.63;;;21.40;88.40;;;21.09;44.86;101920.50;4962222;28;20113;-76
2023/05/29 08:58:26;;;;;;;13.30;2.88;;;21.80;86.60;;;21.58;43.29;101931.34;4995245;28;20045;-76
2023/05/29 09:00:59;;;;;;;11.63;3.28;;;22.10;86.70;;;22.08;42.90;101943.59;4978258;28;20071;-76
2023/05/29 09:03:28;;;;;;;14.85;3.17;;;22.60;88.20;;;22.48;43.31;101945.06;4950721;28;20454;-75
2023/05/29 09:06:03;;;;;;;22.80;3.95;;;22.90;89.60;;;22.60;44.01;101946.78;4971022;28;20041;-76
2023/05/29 09:08:32;;;;;;;18.70;3.92;;;22.60;87.30;;;21.65;44.74;101944.16;4956008;28;20033;-77
2023/05/29 09:11:05;;;;;;;22.73;3.60;;;22.10;88.30;;;20.76;46.08;101930.97;4958879;28;20041;-77
2023/05/29 09:13:31;;;;;;;14.07;3.30;;;21.40;89.20;;;19.96;47.68;101923.06;4966797;28;20042;-76
2023/05/29 09:16:10;;;;;;;21.85;3.58;;;21.10;90.20;;;20.07;47.50;101923.19;4974530;28;20038;-76
2023/05/29 09:18:36;;;;;;;25.00;4.55;;;21.00;91.10;;;20.22;48.01;101921.28;4976704;28;20038;-76
2023/05/29 09:21:10;;;;;;;12.68;3.20;;;21.10;90.50;;;20.64;45.84;101928.19;4967245;28;20402;-76
2023/05/29 09:23:36;;;;;;;17.85;3.00;;;21.30;89.70;;;20.93;45.24;101932.44;4968583;28;20117;-76
2023/05/29 09:26:06;;;;;;;13.98;3.35;;;21.60;86.70;;;21.43;43.35;101936.84;4971996;28;20034;-76
2023/05/29 09:28:45;;;;;;;18.02;3.55;;;22.00;87.40;;;21.81;43.37;101951.03;4973718;28;20042;-77
2023/05/29 09:31:21;;;;;;;17.20;3.45;;;22.00;87.40;;;21.17;44.39;101943.22;4955620;28;20034;-76
2023/05/29 09:33:51;;;;;;;18.48;3.58;;;21.60;86.40;;;20.37;44.94;101941.63;4973663;28;20451;-76
2023/05/29 09:36:24;;;;;;;11.93;3.20;;;21.30;88.50;;;20.20;45.51;101934.75;4968300;28;20038;-76
2023/05/29 09:38:56;;;;;;;18.52;3.92;;;21.10;89.20;;;20.33;46.32;101952.66;4973944;28;20061;-76
2023/05/29 09:41:25;;;;;;;12.75;2.88;;;21.20;87.00;;;20.62;44.54;101948.84;4973495;28;20035;-76
2023/05/29 09:43:58;;;;;;;12.85;3.20;;;21.30;84.70;;;20.64;43.17;101954.94;4971996;28;20030;-77
2023/05/29 09:46:30;;;;;;;14.45;3.25;;;21.20;86.60;;;21.08;43.28;101953.63;4958046;28;20056;-76
2023/05/29 09:49:05;;;;;;;11.65;3.58;;;21.70;83.10;;;21.24;42.21;101950.69;4980088;28;20491;-76
2023/05/29 09:51:31;;;;;;;16.45;3.63;;;22.00;87.30;;;21.74;43.22;101960.53;4970607;28;20034;-76
2023/05/29 09:54:16;;;;;;;13.50;3.10;;;22.10;86.10;;;21.33;43.45;101946.47;4971249;28;20057;-76
2023/05/29 09:56:45;;;;;;;15.63;3.53;;;21.90;86.10;;;21.06;43.66;101942.16;4973653;28;20088;-76
2023/05/29 09:59:20;;;;;;;14.57;3.05;;;21.70;87.00;;;20.87;44.67;101944.44;4956537;28;20037;-76
2023/05/29 10:01:50;;;;;;;12.20;3.30;;;21.80;88.30;;;21.26;43.93;101937.19;4970527;28;20046;-76
2023/05/29 10:04:19;;;;;;;16.45;2.85;;;22.10;85.80;;;21.73;42.95;101942.72;4964519;28;20033;-76
2023/05/29 10:06:48;;;;;;;16.38;3.40;;;22.30;87.90;;;22.03;43.29;101945.78;4972847;28;20394;-76
2023/05/29 10:09:25;;;;;;;15.13;3.75;;;22.30;85.10;;;21.74;42.46;101939.91;4973878;28;20030;-76
2023/05/29 10:11:53;;;;;;;;;;;22.30;86.00;;;20.93;43.50;101935.97;4977436;28;20122;-76
2023/05/29 10:14:21;;;;;;;22.10;3.20;;;21.70;83.80;;;20.44;43.75;101929.53;4975074;28;19964;-74